sensor_id;sensor_type;location;lat;lon;timestamp;temperature;humidity
3478;DHT22;37937;61.490;23.506;2023-04-03T00:00:03;-4.10;99.90
3478;DHT22;37937;61.490;23.506;2023-04-03T00:02:29;-4.10;99.90
3478;DHT22;37937;61.490;23.506;2023-04-03T00:04:54;-4.10;99.90
3478;DHT22;37937;61.490;23.506;2023-04-03T00:07:23;-4.10;99.90
3478;DHT22;37937;61.490;23.506;2023-04-03T00:09:48;-4.10;99.90
3478;DHT22;37937;61.490;23.506;2023-04-03T00:12:14;-4.20;99.90
3478;DHT22;37937;61.490;23.506;2023-04-03T00:14:48;-4.20;99.90
3478;DHT22;37937;61.490;23.506;2023-04-03T00:17:13;-4.20;99.90
3478;DHT22;37937;61.490;23.506;2023-04-03T00:19:39;-4.20;99.90
3478;DHT22;37937;61.490;23.506;2023-04-03T00:22:05;-4.30;99.90
3478;DHT22;37937;61.490;23.506;2023-04-03T00:24:31;-4.30;99.90
3478;DHT22;37937;61.490;23.506;2023-04-03T00:26:56;-4.30;99.90
3478;DHT22;37937;61.490;23.506;2023-04-03T00:29:22;-4.30;99.90
3478;DHT22;37937;61.490;23.506;2023-04-03T00:31:48;-4.30;99.90
3478;DHT22;37937;61.490;23.506;2023-04-03T00:34:13;-4.30;99.90
3478;DHT22;37937;61.490;23.506;2023-04-03T00:36:39;-4.40;99.90
3478;DHT22;37937;61.490;23.506;2023-04-03T00:39:05;-4.40;99.90
3478;DHT22;37937;61.490;23.506;2023-04-03T00:41:31;-4.40;99.90
3478;DHT22;37937;61.490;23.506;2023-04-03T00:43:57;-4.40;99.90
3478;DHT22;37937;61.490;23.506;2023-04-03T00:46:23;-4.50;99.90
3478;DHT22;37937;61.490;23.506;2023-04-03T00:48:48;-4.50;99.90
3478;DHT22;37937;61.490;23.506;2023-04-03T00:51:19;-4.50;99.90
3478;DHT22;37937;61.490;23.506;2023-04-03T00:53:49;-4.50;99.90
3478;DHT22;37937;61.490;23.506;2023-04-03T00:56:16;-4.50;99.90
3478;DHT22;37937;61.490;23.506;2023-04-03T01:01:25;-4.60;99.90
3478;DHT22;37937;61.490;23.506;2023-04-03T01:03:51;-4.60;99.90
3478;DHT22;37937;61.490;23.506;2023-04-03T01:06:18;-4.60;99.90
3478;DHT22;37937;61.490;23.506;2023-04-03T01:08:47;-4.60;99.90
3478;DHT22;37937;61.490;23.506;2023-04-03T01:11:14;-4.60;99.90
3478;DHT22;37937;61.490;23.506;2023-04-03T01:13:40;-4.60;99.90
3478;DHT22;37937;61.490;23.506;2023-04-03T01:16:06;-4.70;99.90
3478;DHT22;37937;61.490;23.506;2023-04-03T01:18:32;-4.70;99.90
3478;DHT22;37937;61.490;23.506;2023-04-03T01:24:29;-4.70;99.90
3478;DHT22;37937;61.490;23.506;2023-04-03T01:26:29;-4.70;99.90
3478;DHT22;37937;61.490;23.506;2023-04-03T01:28:55;-4.70;99.90
3478;DHT22;37937;61.490;23.506;2023-04-03T01:31:28;-5.20;99.90
3478;DHT22;37937;61.490;23.506;2023-04-03T01:33:55;-4.70;99.90
3478;DHT22;37937;61.490;23.506;2023-04-03T01:36:23;-4.70;99.90
3478;DHT22;37937;61.490;23.506;2023-04-03T01:38:49;-4.70;99.90
3478;DHT22;37937;61.490;23.506;2023-04-03T01:41:15;-4.80;99.90
3478;DHT22;37937;61.490;23.506;2023-04-03T01:43:41;-4.80;99.90
3478;DHT22;37937;61.490;23.506;2023-04-03T01:46:07;-4.80;99.90
3478;DHT22;37937;61.490;23.506;2023-04-03T01:48:33;-4.80;99.90
3478;DHT22;37937;61.490;23.506;2023-04-03T01:50:58;-4.90;99.90
3478;DHT22;37937;61.490;23.506;2023-04-03T01:53:24;-4.90;99.90
3478;DHT22;37937;61.490;23.506;2023-04-03T01:55:50;-4.90;99.90
3478;DHT22;37937;61.490;23.506;2023-04-03T01:58:15;-4.90;99.90
3478;DHT22;37937;61.490;23.506;2023-04-03T02:00:42;-4.90;99.90
3478;DHT22;37937;61.490;23.506;2023-04-03T02:03:07;-5.00;99.90
3478;DHT22;37937;61.490;23.506;2023-04-03T02:05:33;-5.00;99.90
3478;DHT22;37937;61.490;23.506;2023-04-03T02:07:59;-5.00;99.90
3478;DHT22;37937;61.490;23.506;2023-04-03T02:10:25;-5.00;99.90
3478;DHT22;37937;61.490;23.506;2023-04-03T02:12:53;-5.00;99.90
3478;DHT22;37937;61.490;23.506;2023-04-03T02:15:19;-5.00;99.90
3478;DHT22;37937;61.490;23.506;2023-04-03T02:17:45;-5.10;99.90
3478;DHT22;37937;61.490;23.506;2023-04-03T02:20:10;-5.00;99.90
3478;DHT22;37937;61.490;23.506;2023-04-03T02:22:36;-5.10;99.90
3478;DHT22;37937;61.490;23.506;2023-04-03T02:25:02;-5.10;99.90
3478;DHT22;37937;61.490;23.506;2023-04-03T02:27:28;-5.10;99.90
3478;DHT22;37937;61.490;23.506;2023-04-03T02:29:53;-5.20;99.90
3478;DHT22;37937;61.490;23.506;2023-04-03T02:32:19;-5.20;99.90
3478;DHT22;37937;61.490;23.506;2023-04-03T02:34:45;-5.20;99.90
3478;DHT22;37937;61.490;23.506;2023-04-03T02:37:11;-5.20;99.90
3478;DHT22;37937;61.490;23.506;2023-04-03T02:39:36;-5.30;99.90
3478;DHT22;37937;61.490;23.506;2023-04-03T02:42:02;-5.30;99.90
3478;DHT22;37937;61.490;23.506;2023-04-03T02:44:28;-5.30;99.90
3478;DHT22;37937;61.490;23.506;2023-04-03T02:46:53;-5.40;99.90
3478;DHT22;37937;61.490;23.506;2023-04-03T02:49:19;-5.40;99.90
3478;DHT22;37937;61.490;23.506;2023-04-03T02:51:45;-5.40;99.90
3478;DHT22;37937;61.490;23.506;2023-04-03T02:54:11;-5.40;99.90
3478;DHT22;37937;61.490;23.506;2023-04-03T02:56:37;-5.40;99.90
3478;DHT22;37937;61.490;23.506;2023-04-03T02:59:02;-5.40;99.90
3478;DHT22;37937;61.490;23.506;2023-04-03T03:01:28;-5.40;99.90
3478;DHT22;37937;61.490;23.506;2023-04-03T03:03:57;-5.40;99.90
3478;DHT22;37937;61.490;23.506;2023-04-03T03:06:22;-5.50;99.90
3478;DHT22;37937;61.490;23.506;2023-04-03T03:08:48;-5.50;99.90
3478;DHT22;37937;61.490;23.506;2023-04-03T03:11:14;-5.60;99.90
3478;DHT22;37937;61.490;23.506;2023-04-03T03:13:39;-5.60;99.90
3478;DHT22;37937;61.490;23.506;2023-04-03T03:16:05;-5.60;99.90
3478;DHT22;37937;61.490;23.506;2023-04-03T03:18:31;-5.60;99.90
3478;DHT22;37937;61.490;23.506;2023-04-03T03:20:57;-5.60;99.90
3478;DHT22;37937;61.490;23.506;2023-04-03T03:23:24;-5.60;99.90
3478;DHT22;37937;61.490;23.506;2023-04-03T03:25:54;-5.60;99.90
3478;DHT22;37937;61.490;23.506;2023-04-03T03:28:20;-5.60;99.90
3478;DHT22;37937;61.490;23.506;2023-04-03T03:30:45;-5.70;99.90
3478;DHT22;37937;61.490;23.506;2023-04-03T03:33:11;-5.70;99.90
3478;DHT22;37937;61.490;23.506;2023-04-03T03:35:37;-5.70;99.90
3478;DHT22;37937;61.490;23.506;2023-04-03T03:38:03;-5.70;99.90
3478;DHT22;37937;61.490;23.506;2023-04-03T03:40:28;-5.80;99.90
3478;DHT22;37937;61.490;23.506;2023-04-03T03:42:54;-5.80;99.90
3478;DHT22;37937;61.490;23.506;2023-04-03T03:45:19;-5.80;99.90
3478;DHT22;37937;61.490;23.506;2023-04-03T03:47:45;-5.80;99.90
3478;DHT22;37937;61.490;23.506;2023-04-03T03:50:11;-5.80;99.90
3478;DHT22;37937;61.490;23.506;2023-04-03T03:52:36;-5.80;99.90
3478;DHT22;37937;61.490;23.506;2023-04-03T03:55:02;-5.80;99.90
3478;DHT22;37937;61.490;23.506;2023-04-03T03:57:28;-5.80;99.90
3478;DHT22;37937;61.490;23.506;2023-04-03T03:59:54;-5.80;99.90
3478;DHT22;37937;61.490;23.506;2023-04-03T04:02:20;-5.90;99.90
3478;DHT22;37937;61.490;23.506;2023-04-03T04:04:45;-5.90;99.90
3478;DHT22;37937;61.490;23.506;2023-04-03T04:07:11;-5.90;99.90
3478;DHT22;37937;61.490;23.506;2023-04-03T04:09:37;-5.90;99.90
3478;DHT22;37937;61.490;23.506;2023-04-03T04:12:02;-5.90;99.90
3478;DHT22;37937;61.490;23.506;2023-04-03T04:14:28;-5.90;99.90
3478;DHT22;37937;61.490;23.506;2023-04-03T04:16:53;-5.90;99.90
3478;DHT22;37937;61.490;23.506;2023-04-03T04:19:19;-5.80;99.90
3478;DHT22;37937;61.490;23.506;2023-04-03T04:21:45;-5.80;99.90
3478;DHT22;37937;61.490;23.506;2023-04-03T04:24:10;-5.80;99.90
3478;DHT22;37937;61.490;23.506;2023-04-03T04:26:36;-5.80;99.90
3478;DHT22;37937;61.490;23.506;2023-04-03T04:29:02;-5.70;99.90
3478;DHT22;37937;61.490;23.506;2023-04-03T04:31:27;-5.70;99.90
3478;DHT22;37937;61.490;23.506;2023-04-03T04:33:53;-5.70;99.90
3478;DHT22;37937;61.490;23.506;2023-04-03T04:36:19;-5.60;99.90
3478;DHT22;37937;61.490;23.506;2023-04-03T04:38:45;-5.60;99.90
3478;DHT22;37937;61.490;23.506;2023-04-03T04:41:10;-5.50;99.90
3478;DHT22;37937;61.490;23.506;2023-04-03T04:43:36;-5.40;99.90
3478;DHT22;37937;61.490;23.506;2023-04-03T04:48:27;-5.20;99.90
3478;DHT22;37937;61.490;23.506;2023-04-03T04:50:53;-5.10;99.90
3478;DHT22;37937;61.490;23.506;2023-04-03T04:53:18;-4.90;99.90
3478;DHT22;37937;61.490;23.506;2023-04-03T04:55:44;-4.80;99.90
3478;DHT22;37937;61.490;23.506;2023-04-03T04:58:09;-4.60;99.90
3478;DHT22;37937;61.490;23.506;2023-04-03T05:00:35;-4.40;99.90
3478;DHT22;37937;61.490;23.506;2023-04-03T05:03:01;-4.30;99.90
3478;DHT22;37937;61.490;23.506;2023-04-03T05:05:26;-4.00;99.90
3478;DHT22;37937;61.490;23.506;2023-04-03T05:07:52;-4.00;99.90
3478;DHT22;37937;61.490;23.506;2023-04-03T05:10:17;-4.00;99.90
3478;DHT22;37937;61.490;23.506;2023-04-03T05:12:43;-3.90;99.90
3478;DHT22;37937;61.490;23.506;2023-04-03T05:15:09;-4.00;99.90
3478;DHT22;37937;61.490;23.506;2023-04-03T05:17:34;-3.90;99.90
3478;DHT22;37937;61.490;23.506;2023-04-03T05:20:01;-3.70;99.90
3478;DHT22;37937;61.490;23.506;2023-04-03T05:22:26;-3.80;99.90
3478;DHT22;37937;61.490;23.506;2023-04-03T05:24:54;-3.90;99.90
3478;DHT22;37937;61.490;23.506;2023-04-03T05:27:20;-3.90;99.90
3478;DHT22;37937;61.490;23.506;2023-04-03T05:29:45;-3.80;99.90
3478;DHT22;37937;61.490;23.506;2023-04-03T05:32:11;-3.70;99.90
3478;DHT22;37937;61.490;23.506;2023-04-03T05:34:37;-3.70;99.90
3478;DHT22;37937;61.490;23.506;2023-04-03T05:37:03;-3.40;99.90
3478;DHT22;37937;61.490;23.506;2023-04-03T05:39:30;-3.30;99.90
3478;DHT22;37937;61.490;23.506;2023-04-03T05:41:57;-3.00;99.90
3478;DHT22;37937;61.490;23.506;2023-04-03T05:44:22;-2.80;94.30
3478;DHT22;37937;61.490;23.506;2023-04-03T05:46:48;-2.60;98.10
3478;DHT22;37937;61.490;23.506;2023-04-03T05:49:13;-2.20;97.30
3478;DHT22;37937;61.490;23.506;2023-04-03T05:51:39;-2.10;96.70
3478;DHT22;37937;61.490;23.506;2023-04-03T05:54:08;-1.60;93.00
3478;DHT22;37937;61.490;23.506;2023-04-03T05:56:35;-1.50;83.60
3478;DHT22;37937;61.490;23.506;2023-04-03T05:59:00;-1.50;83.60
3478;DHT22;37937;61.490;23.506;2023-04-03T06:01:26;-1.30;87.40
3478;DHT22;37937;61.490;23.506;2023-04-03T06:03:52;-0.90;91.20
3478;DHT22;37937;61.490;23.506;2023-04-03T06:06:17;-0.90;84.70
3478;DHT22;37937;61.490;23.506;2023-04-03T06:08:43;-1.10;75.70
3478;DHT22;37937;61.490;23.506;2023-04-03T06:11:09;-0.60;72.20
3478;DHT22;37937;61.490;23.506;2023-04-03T06:13:34;-0.40;79.60
3478;DHT22;37937;61.490;23.506;2023-04-03T06:16:00;0.20;73.40
3478;DHT22;37937;61.490;23.506;2023-04-03T06:18:26;0.80;71.30
3478;DHT22;37937;61.490;23.506;2023-04-03T06:20:52;0.40;72.40
3478;DHT22;37937;61.490;23.506;2023-04-03T06:23:17;0.70;74.30
3478;DHT22;37937;61.490;23.506;2023-04-03T06:25:43;1.10;65.80
3478;DHT22;37937;61.490;23.506;2023-04-03T06:28:09;1.60;56.00
3478;DHT22;37937;61.490;23.506;2023-04-03T06:30:35;1.20;57.10
3478;DHT22;37937;61.490;23.506;2023-04-03T06:33:02;1.70;57.50
3478;DHT22;37937;61.490;23.506;2023-04-03T06:35:27;1.50;57.80
3478;DHT22;37937;61.490;23.506;2023-04-03T06:37:55;1.90;57.70
3478;DHT22;37937;61.490;23.506;2023-04-03T06:40:22;1.00;44.50
3478;DHT22;37937;61.490;23.506;2023-04-03T06:42:48;1.80;52.60
3478;DHT22;37937;61.490;23.506;2023-04-03T06:45:14;1.30;48.30
3478;DHT22;37937;61.490;23.506;2023-04-03T06:47:40;1.50;56.00
3478;DHT22;37937;61.490;23.506;2023-04-03T06:50:05;1.50;54.50
3478;DHT22;37937;61.490;23.506;2023-04-03T06:52:32;1.90;53.60
3478;DHT22;37937;61.490;23.506;2023-04-03T06:54:57;1.60;47.70
3478;DHT22;37937;61.490;23.506;2023-04-03T06:57:25;1.70;46.10
3478;DHT22;37937;61.490;23.506;2023-04-03T06:59:50;1.60;52.60
3478;DHT22;37937;61.490;23.506;2023-04-03T07:02:16;2.10;45.20
3478;DHT22;37937;61.490;23.506;2023-04-03T07:04:42;2.00;45.50
3478;DHT22;37937;61.490;23.506;2023-04-03T07:07:08;1.70;39.00
3478;DHT22;37937;61.490;23.506;2023-04-03T07:09:33;2.00;39.80
3478;DHT22;37937;61.490;23.506;2023-04-03T07:11:59;1.70;47.70
3478;DHT22;37937;61.490;23.506;2023-04-03T07:14:25;1.80;48.30
3478;DHT22;37937;61.490;23.506;2023-04-03T07:16:51;2.60;49.00
3478;DHT22;37937;61.490;23.506;2023-04-03T07:19:16;2.90;42.10
3478;DHT22;37937;61.490;23.506;2023-04-03T07:21:43;2.30;35.00
3478;DHT22;37937;61.490;23.506;2023-04-03T07:24:10;2.20;36.50
3478;DHT22;37937;61.490;23.506;2023-04-03T07:26:35;2.30;37.10
3478;DHT22;37937;61.490;23.506;2023-04-03T07:29:01;2.60;37.10
3478;DHT22;37937;61.490;23.506;2023-04-03T07:31:27;2.50;36.90
3478;DHT22;37937;61.490;23.506;2023-04-03T07:33:52;2.10;29.80
3478;DHT22;37937;61.490;23.506;2023-04-03T07:36:20;2.80;32.40
3478;DHT22;37937;61.490;23.506;2023-04-03T07:38:46;2.40;41.40
3478;DHT22;37937;61.490;23.506;2023-04-03T07:41:13;2.50;42.70
3478;DHT22;37937;61.490;23.506;2023-04-03T07:43:39;2.40;27.30
3478;DHT22;37937;61.490;23.506;2023-04-03T07:46:04;2.20;36.80
3478;DHT22;37937;61.490;23.506;2023-04-03T07:48:30;2.60;30.30
3478;DHT22;37937;61.490;23.506;2023-04-03T07:50:59;2.70;40.20
3478;DHT22;37937;61.490;23.506;2023-04-03T07:53:24;3.00;40.00
3478;DHT22;37937;61.490;23.506;2023-04-03T07:55:50;3.00;41.10
3478;DHT22;37937;61.490;23.506;2023-04-03T07:58:20;2.70;41.40
3478;DHT22;37937;61.490;23.506;2023-04-03T08:00:46;3.40;40.00
3478;DHT22;37937;61.490;23.506;2023-04-03T08:03:12;2.90;31.70
3478;DHT22;37937;61.490;23.506;2023-04-03T08:05:42;3.40;39.50
3478;DHT22;37937;61.490;23.506;2023-04-03T08:08:09;3.60;38.50
3478;DHT22;37937;61.490;23.506;2023-04-03T08:10:36;3.50;33.60
3478;DHT22;37937;61.490;23.506;2023-04-03T08:13:02;3.60;25.00
3478;DHT22;37937;61.490;23.506;2023-04-03T08:15:28;3.30;35.30
3478;DHT22;37937;61.490;23.506;2023-04-03T08:17:54;4.10;34.10
3478;DHT22;37937;61.490;23.506;2023-04-03T08:20:20;3.70;22.00
3478;DHT22;37937;61.490;23.506;2023-04-03T08:22:46;2.70;24.60
3478;DHT22;37937;61.490;23.506;2023-04-03T08:25:11;2.70;25.00
3478;DHT22;37937;61.490;23.506;2023-04-03T08:27:37;2.70;24.40
3478;DHT22;37937;61.490;23.506;2023-04-03T08:30:03;2.30;24.20
3478;DHT22;37937;61.490;23.506;2023-04-03T08:32:29;3.10;28.60
3478;DHT22;37937;61.490;23.506;2023-04-03T08:34:55;3.60;26.30
3478;DHT22;37937;61.490;23.506;2023-04-03T08:37:20;3.30;40.60
3478;DHT22;37937;61.490;23.506;2023-04-03T08:39:46;3.30;33.00
3478;DHT22;37937;61.490;23.506;2023-04-03T08:42:19;3.00;32.10
3478;DHT22;37937;61.490;23.506;2023-04-03T08:44:57;3.70;31.50
3478;DHT22;37937;61.490;23.506;2023-04-03T08:47:45;3.60;32.10
3478;DHT22;37937;61.490;23.506;2023-04-03T08:50:14;3.10;25.80
3478;DHT22;37937;61.490;23.506;2023-04-03T08:52:41;3.70;25.30
3478;DHT22;37937;61.490;23.506;2023-04-03T08:55:23;3.70;32.10
3478;DHT22;37937;61.490;23.506;2023-04-03T08:57:53;4.00;38.60
3478;DHT22;37937;61.490;23.506;2023-04-03T09:00:23;4.10;23.40
3478;DHT22;37937;61.490;23.506;2023-04-03T09:02:50;4.50;24.40
3478;DHT22;37937;61.490;23.506;2023-04-03T09:07:43;3.90;26.60
3478;DHT22;37937;61.490;23.506;2023-04-03T09:10:10;3.50;19.80
3478;DHT22;37937;61.490;23.506;2023-04-03T09:12:38;3.70;15.70
3478;DHT22;37937;61.490;23.506;2023-04-03T09:17:41;4.80;22.50
3478;DHT22;37937;61.490;23.506;2023-04-03T09:22:52;4.40;29.70
3478;DHT22;37937;61.490;23.506;2023-04-03T09:25:23;4.50;25.30
3478;DHT22;37937;61.490;23.506;2023-04-03T09:27:50;5.20;16.30
3478;DHT22;37937;61.490;23.506;2023-04-03T09:30:26;4.90;16.80
3478;DHT22;37937;61.490;23.506;2023-04-03T09:32:53;4.70;12.10
3478;DHT22;37937;61.490;23.506;2023-04-03T09:35:24;4.90;13.00
3478;DHT22;37937;61.490;23.506;2023-04-03T09:37:51;5.30;11.10
3478;DHT22;37937;61.490;23.506;2023-04-03T09:40:40;5.10;22.00
3478;DHT22;37937;61.490;23.506;2023-04-03T09:43:19;4.70;24.00
3478;DHT22;37937;61.490;23.506;2023-04-03T09:45:48;4.50;18.20
3478;DHT22;37937;61.490;23.506;2023-04-03T09:48:16;4.70;16.70
3478;DHT22;37937;61.490;23.506;2023-04-03T09:53:40;5.30;19.90
3478;DHT22;37937;61.490;23.506;2023-04-03T09:58:42;5.30;20.00
3478;DHT22;37937;61.490;23.506;2023-04-03T10:01:20;6.30;14.30
3478;DHT22;37937;61.490;23.506;2023-04-03T10:03:47;4.90;7.80
3478;DHT22;37937;61.490;23.506;2023-04-03T10:06:29;5.10;21.70
3478;DHT22;37937;61.490;23.506;2023-04-03T10:09:38;5.10;21.70
3478;DHT22;37937;61.490;23.506;2023-04-03T10:12:04;5.00;20.40
3478;DHT22;37937;61.490;23.506;2023-04-03T10:14:34;5.50;19.50
3478;DHT22;37937;61.490;23.506;2023-04-03T10:17:06;5.90;7.90
3478;DHT22;37937;61.490;23.506;2023-04-03T10:19:47;5.30;13.30
3478;DHT22;37937;61.490;23.506;2023-04-03T10:29:40;6.20;3.40
3478;DHT22;37937;61.490;23.506;2023-04-03T10:32:24;5.40;17.10
3478;DHT22;37937;61.490;23.506;2023-04-03T10:34:55;4.90;13.50
3478;DHT22;37937;61.490;23.506;2023-04-03T10:37:24;5.50;17.60
3478;DHT22;37937;61.490;23.506;2023-04-03T10:45:01;5.40;11.80
3478;DHT22;37937;61.490;23.506;2023-04-03T10:55:28;5.60;21.80
3478;DHT22;37937;61.490;23.506;2023-04-03T10:57:42;4.30;17.90
3478;DHT22;37937;61.490;23.506;2023-04-03T11:02:59;4.60;19.30
3478;DHT22;37937;61.490;23.506;2023-04-03T11:05:36;5.10;20.80
3478;DHT22;37937;61.490;23.506;2023-04-03T11:08:04;4.80;17.10
3478;DHT22;37937;61.490;23.506;2023-04-03T11:10:36;5.40;14.20
3478;DHT22;37937;61.490;23.506;2023-04-03T11:13:10;5.00;15.90
3478;DHT22;37937;61.490;23.506;2023-04-03T11:15:38;4.80;16.90
3478;DHT22;37937;61.490;23.506;2023-04-03T11:18:06;4.50;17.20
3478;DHT22;37937;61.490;23.506;2023-04-03T11:20:34;3.80;15.30
3478;DHT22;37937;61.490;23.506;2023-04-03T11:23:04;3.90;21.00
3478;DHT22;37937;61.490;23.506;2023-04-03T11:25:34;3.80;23.10
3478;DHT22;37937;61.490;23.506;2023-04-03T11:28:03;3.80;17.60
3478;DHT22;37937;61.490;23.506;2023-04-03T11:35:36;4.00;19.70
3478;DHT22;37937;61.490;23.506;2023-04-03T11:38:02;3.90;8.50
3478;DHT22;37937;61.490;23.506;2023-04-03T11:40:31;3.70;11.70
3478;DHT22;37937;61.490;23.506;2023-04-03T11:43:06;4.30;19.20
3478;DHT22;37937;61.490;23.506;2023-04-03T11:48:04;4.30;6.40
3478;DHT22;37937;61.490;23.506;2023-04-03T11:55:41;3.80;17.20
3478;DHT22;37937;61.490;23.506;2023-04-03T11:58:11;4.30;14.40
3478;DHT22;37937;61.490;23.506;2023-04-03T12:06:42;3.40;12.00
3478;DHT22;37937;61.490;23.506;2023-04-03T12:08:44;3.50;11.10
3478;DHT22;37937;61.490;23.506;2023-04-03T12:16:22;3.10;13.10
3478;DHT22;37937;61.490;23.506;2023-04-03T12:21:14;3.40;9.60
3478;DHT22;37937;61.490;23.506;2023-04-03T12:27:11;3.00;13.60
3478;DHT22;37937;61.490;23.506;2023-04-03T12:29:23;2.70;12.60
3478;DHT22;37937;61.490;23.506;2023-04-03T12:31:55;2.90;16.30
3478;DHT22;37937;61.490;23.506;2023-04-03T12:34:26;2.80;14.80
3478;DHT22;37937;61.490;23.506;2023-04-03T12:37:09;2.90;19.30
3478;DHT22;37937;61.490;23.506;2023-04-03T12:47:28;2.60;12.30
3478;DHT22;37937;61.490;23.506;2023-04-03T12:49:54;2.40;15.30
3478;DHT22;37937;61.490;23.506;2023-04-03T12:54:46;2.80;10.60
3478;DHT22;37937;61.490;23.506;2023-04-03T12:59:40;2.60;10.90
3478;DHT22;37937;61.490;23.506;2023-04-03T13:04:57;2.50;17.60
3478;DHT22;37937;61.490;23.506;2023-04-03T13:12:33;2.40;9.20
3478;DHT22;37937;61.490;23.506;2023-04-03T13:15:12;2.30;8.80
3478;DHT22;37937;61.490;23.506;2023-04-03T13:17:38;2.40;10.70
3478;DHT22;37937;61.490;23.506;2023-04-03T13:20:37;2.40;9.50
3478;DHT22;37937;61.490;23.506;2023-04-03T13:25:22;2.30;16.70
3478;DHT22;37937;61.490;23.506;2023-04-03T13:27:48;2.00;17.50
3478;DHT22;37937;61.490;23.506;2023-04-03T13:30:19;2.10;14.80
3478;DHT22;37937;61.490;23.506;2023-04-03T13:32:46;2.20;12.80
3478;DHT22;37937;61.490;23.506;2023-04-03T13:35:25;2.10;11.60
3478;DHT22;37937;61.490;23.506;2023-04-03T13:37:56;2.20;13.70
3478;DHT22;37937;61.490;23.506;2023-04-03T13:40:23;2.00;8.10
3478;DHT22;37937;61.490;23.506;2023-04-03T13:43:03;2.10;12.60
3478;DHT22;37937;61.490;23.506;2023-04-03T13:45:29;2.00;7.30
3478;DHT22;37937;61.490;23.506;2023-04-03T13:50:58;1.90;7.80
3478;DHT22;37937;61.490;23.506;2023-04-03T13:53:25;1.80;12.90
3478;DHT22;37937;61.490;23.506;2023-04-03T13:55:56;1.80;6.80
3478;DHT22;37937;61.490;23.506;2023-04-03T13:58:27;1.90;12.50
3478;DHT22;37937;61.490;23.506;2023-04-03T14:05:47;1.80;13.70
3478;DHT22;37937;61.490;23.506;2023-04-03T14:08:12;1.70;9.80
3478;DHT22;37937;61.490;23.506;2023-04-03T14:10:38;1.70;6.90
3478;DHT22;37937;61.490;23.506;2023-04-03T14:13:04;1.60;10.00
3478;DHT22;37937;61.490;23.506;2023-04-03T14:15:30;1.70;3.60
3478;DHT22;37937;61.490;23.506;2023-04-03T14:17:56;1.70;10.00
3478;DHT22;37937;61.490;23.506;2023-04-03T14:20:24;1.70;8.60
3478;DHT22;37937;61.490;23.506;2023-04-03T14:22:50;1.60;13.00
3478;DHT22;37937;61.490;23.506;2023-04-03T14:25:17;1.60;18.40
3478;DHT22;37937;61.490;23.506;2023-04-03T14:27:47;1.50;18.90
3478;DHT22;37937;61.490;23.506;2023-04-03T14:30:15;1.40;12.30
3478;DHT22;37937;61.490;23.506;2023-04-03T14:32:42;1.40;21.60
3478;DHT22;37937;61.490;23.506;2023-04-03T14:35:07;1.40;13.50
3478;DHT22;37937;61.490;23.506;2023-04-03T14:37:33;1.40;8.90
3478;DHT22;37937;61.490;23.506;2023-04-03T14:39:59;1.30;9.20
3478;DHT22;37937;61.490;23.506;2023-04-03T14:42:29;1.30;14.70
3478;DHT22;37937;61.490;23.506;2023-04-03T14:44:57;1.30;11.50
3478;DHT22;37937;61.490;23.506;2023-04-03T14:47:24;1.30;6.70
3478;DHT22;37937;61.490;23.506;2023-04-03T14:49:50;1.40;8.40
3478;DHT22;37937;61.490;23.506;2023-04-03T14:52:20;1.30;5.30
3478;DHT22;37937;61.490;23.506;2023-04-03T14:54:46;1.40;9.40
3478;DHT22;37937;61.490;23.506;2023-04-03T14:57:13;1.40;12.30
3478;DHT22;37937;61.490;23.506;2023-04-03T14:59:39;1.40;11.80
3478;DHT22;37937;61.490;23.506;2023-04-03T15:02:27;1.30;5.70
3478;DHT22;37937;61.490;23.506;2023-04-03T15:04:51;1.30;14.00
3478;DHT22;37937;61.490;23.506;2023-04-03T15:07:17;1.30;7.80
3478;DHT22;37937;61.490;23.506;2023-04-03T15:09:42;1.30;12.20
3478;DHT22;37937;61.490;23.506;2023-04-03T15:12:08;1.20;12.80
3478;DHT22;37937;61.490;23.506;2023-04-03T15:14:34;1.20;4.30
3478;DHT22;37937;61.490;23.506;2023-04-03T15:17:00;1.20;10.70
3478;DHT22;37937;61.490;23.506;2023-04-03T15:19:25;1.20;3.90
3478;DHT22;37937;61.490;23.506;2023-04-03T15:21:51;1.20;5.20
3478;DHT22;37937;61.490;23.506;2023-04-03T15:24:17;1.10;6.80
3478;DHT22;37937;61.490;23.506;2023-04-03T15:26:42;1.10;6.60
3478;DHT22;37937;61.490;23.506;2023-04-03T15:29:08;1.00;6.10
3478;DHT22;37937;61.490;23.506;2023-04-03T15:31:34;1.00;11.80
3478;DHT22;37937;61.490;23.506;2023-04-03T15:33:59;1.00;7.80
3478;DHT22;37937;61.490;23.506;2023-04-03T15:36:25;1.00;6.10
3478;DHT22;37937;61.490;23.506;2023-04-03T15:38:51;1.00;4.60
3478;DHT22;37937;61.490;23.506;2023-04-03T15:41:16;1.00;5.90
3478;DHT22;37937;61.490;23.506;2023-04-03T15:43:42;0.90;9.40
3478;DHT22;37937;61.490;23.506;2023-04-03T15:46:08;0.90;4.20
3478;DHT22;37937;61.490;23.506;2023-04-03T15:48:33;0.90;1.00
3478;DHT22;37937;61.490;23.506;2023-04-03T15:50:59;0.90;8.20
3478;DHT22;37937;61.490;23.506;2023-04-03T15:53:25;0.80;5.00
3478;DHT22;37937;61.490;23.506;2023-04-03T15:55:51;0.70;9.10
3478;DHT22;37937;61.490;23.506;2023-04-03T15:58:16;0.70;7.40
3478;DHT22;37937;61.490;23.506;2023-04-03T16:00:42;0.70;9.20
3478;DHT22;37937;61.490;23.506;2023-04-03T16:03:18;0.60;8.70
3478;DHT22;37937;61.490;23.506;2023-04-03T16:05:44;0.60;8.40
3478;DHT22;37937;61.490;23.506;2023-04-03T16:08:09;0.60;9.50
3478;DHT22;37937;61.490;23.506;2023-04-03T16:10:35;0.50;3.80
3478;DHT22;37937;61.490;23.506;2023-04-03T16:13:01;0.50;5.70
3478;DHT22;37937;61.490;23.506;2023-04-03T16:15:27;0.50;6.00
3478;DHT22;37937;61.490;23.506;2023-04-03T16:17:53;0.40;5.10
3478;DHT22;37937;61.490;23.506;2023-04-03T16:20:18;0.40;3.80
3478;DHT22;37937;61.490;23.506;2023-04-03T16:22:44;0.40;7.40
3478;DHT22;37937;61.490;23.506;2023-04-03T16:25:10;0.30;5.40
3478;DHT22;37937;61.490;23.506;2023-04-03T16:27:36;0.30;8.70
3478;DHT22;37937;61.490;23.506;2023-04-03T16:30:02;0.10;5.80
3478;DHT22;37937;61.490;23.506;2023-04-03T16:32:29;0.20;10.50
3478;DHT22;37937;61.490;23.506;2023-04-03T16:34:55;0.10;12.00
3478;DHT22;37937;61.490;23.506;2023-04-03T16:37:20;0.20;1.80
3478;DHT22;37937;61.490;23.506;2023-04-03T16:39:46;0.00;8.00
3478;DHT22;37937;61.490;23.506;2023-04-03T16:42:11;0.00;7.40
3478;DHT22;37937;61.490;23.506;2023-04-03T16:44:37;-0.10;6.90
3478;DHT22;37937;61.490;23.506;2023-04-03T16:47:05;-0.10;10.20
3478;DHT22;37937;61.490;23.506;2023-04-03T16:49:30;-0.10;9.70
3478;DHT22;37937;61.490;23.506;2023-04-03T16:51:59;-0.20;18.60
3478;DHT22;37937;61.490;23.506;2023-04-03T16:54:25;-0.30;19.20
3478;DHT22;37937;61.490;23.506;2023-04-03T16:56:51;-0.40;20.60
3478;DHT22;37937;61.490;23.506;2023-04-03T16:59:17;-0.50;22.50
3478;DHT22;37937;61.490;23.506;2023-04-03T17:01:43;-0.50;28.40
3478;DHT22;37937;61.490;23.506;2023-04-03T17:04:08;-0.60;37.00
3478;DHT22;37937;61.490;23.506;2023-04-03T17:06:34;-0.60;82.80
3478;DHT22;37937;61.490;23.506;2023-04-03T17:09:00;-0.70;58.60
3478;DHT22;37937;61.490;23.506;2023-04-03T17:11:26;-0.80;48.70
3478;DHT22;37937;61.490;23.506;2023-04-03T17:13:52;-0.90;65.20
3478;DHT22;37937;61.490;23.506;2023-04-03T17:16:18;-1.00;54.20
3478;DHT22;37937;61.490;23.506;2023-04-03T17:18:43;-1.10;40.60
3478;DHT22;37937;61.490;23.506;2023-04-03T17:21:10;-1.20;41.10
3478;DHT22;37937;61.490;23.506;2023-04-03T17:23:36;-1.30;59.10
3478;DHT22;37937;61.490;23.506;2023-04-03T17:26:03;-1.30;72.50